createdAt,value
2023-04-08T00:00:25.928Z,972.96
2023-04-08T00:01:25.903Z,972.97
2023-04-08T00:02:26.020Z,972.98
2023-04-08T00:03:25.962Z,972.97
2023-04-08T00:04:26.028Z,972.98
2023-04-08T00:05:25.868Z,973.01
2023-04-08T00:06:25.988Z,972.99
2023-04-08T00:07:25.868Z,973.00
2023-04-08T00:08:25.799Z,972.94
2023-04-08T00:09:25.775Z,973.00
2023-04-08T00:10:25.757Z,973.02
2023-04-08T00:11:25.797Z,972.99
2023-04-08T00:12:25.763Z,972.98
2023-04-08T00:13:25.712Z,972.96
2023-04-08T00:14:25.679Z,972.99
2023-04-08T00:15:25.669Z,972.98
2023-04-08T00:16:25.673Z,972.94
2023-04-08T00:17:25.711Z,972.94
2023-04-08T00:18:25.618Z,972.92
2023-04-08T00:19:25.605Z,972.98
2023-04-08T00:20:25.578Z,972.99
2023-04-08T00:21:25.616Z,972.99
2023-04-08T00:22:25.585Z,973.02
2023-04-08T00:23:25.549Z,973.03
2023-04-08T00:24:25.528Z,973.01
2023-04-08T00:25:25.826Z,973.02
2023-04-08T00:26:26.509Z,972.99
2023-04-08T00:27:25.621Z,973.00
2023-04-08T00:28:25.451Z,972.94
2023-04-08T00:29:25.429Z,972.98
2023-04-08T00:30:25.429Z,972.98
2023-04-08T00:31:25.420Z,973.00
2023-04-08T00:32:25.430Z,973.00
2023-04-08T00:33:25.353Z,972.98
2023-04-08T00:34:25.349Z,973.05
2023-04-08T00:35:25.385Z,973.03
2023-04-08T00:36:25.352Z,973.02
2023-04-08T00:37:25.320Z,973.03
2023-04-08T00:38:25.287Z,973.00
2023-04-08T00:39:25.257Z,973.00
2023-04-08T00:40:25.238Z,972.99
2023-04-08T00:41:25.240Z,973.00
2023-04-08T00:42:25.213Z,973.01
2023-04-08T00:43:25.232Z,972.98
2023-04-08T00:44:25.228Z,972.98
2023-04-08T00:45:25.166Z,972.97
2023-04-08T00:46:25.193Z,972.96
2023-04-08T00:47:25.174Z,972.96
2023-04-08T00:48:25.141Z,972.99
2023-04-08T00:49:25.090Z,972.95
2023-04-08T00:50:25.062Z,972.99
2023-04-08T00:51:25.053Z,973.01
2023-04-08T00:52:25.033Z,973.01
2023-04-08T00:53:25.734Z,973.02
2023-04-08T00:54:25.013Z,973.02
2023-04-08T00:55:24.983Z,972.98
2023-04-08T00:56:24.974Z,973.00
2023-04-08T00:57:24.945Z,973.05
2023-04-08T00:58:24.952Z,972.99
2023-04-08T00:59:24.914Z,972.99
2023-04-08T01:00:24.903Z,973.01
2023-04-08T01:01:24.930Z,973.01
2023-04-08T01:02:25.092Z,972.97
2023-04-08T01:03:25.172Z,972.98
2023-04-08T01:04:24.998Z,973.03
2023-04-08T01:05:24.812Z,972.98
2023-04-08T01:06:24.795Z,972.97
2023-04-08T01:07:24.773Z,972.90
2023-04-08T01:08:24.810Z,972.95
2023-04-08T01:09:24.758Z,973.01
2023-04-08T01:10:24.725Z,972.95
2023-04-08T01:11:24.743Z,972.98
2023-04-08T01:12:25.700Z,973.03
2023-04-08T01:13:24.713Z,973.03
2023-04-08T01:14:24.655Z,972.97
2023-04-08T01:15:24.649Z,972.97
2023-04-08T01:16:24.694Z,972.94
2023-04-08T01:17:24.661Z,972.94
2023-04-08T01:18:24.673Z,972.92
2023-04-08T01:19:25.587Z,972.89
2023-04-08T01:20:24.569Z,972.92
2023-04-08T01:21:24.569Z,972.90
2023-04-08T01:22:24.549Z,972.94
2023-04-08T01:23:24.565Z,972.91
2023-04-08T01:24:24.522Z,972.88
2023-04-08T01:25:24.483Z,972.92
2023-04-08T01:26:24.473Z,972.90
2023-04-08T01:27:24.446Z,972.96
2023-04-08T01:28:24.456Z,972.87
2023-04-08T01:29:24.411Z,972.87
2023-04-08T01:30:24.399Z,972.88
2023-04-08T01:31:24.456Z,972.93
2023-04-08T01:32:24.391Z,972.93
2023-04-08T01:33:24.373Z,972.98
2023-04-08T01:34:24.350Z,972.98
2023-04-08T01:35:24.355Z,972.95
2023-04-08T01:36:24.300Z,973.02
2023-04-08T01:37:24.283Z,972.94
2023-04-08T01:38:24.302Z,972.94
2023-04-08T01:39:24.250Z,972.93
2023-04-08T01:40:24.238Z,972.94
2023-04-08T01:41:24.226Z,972.94
2023-04-08T01:42:24.201Z,972.97
2023-04-08T01:43:24.230Z,972.98
2023-04-08T01:44:24.173Z,972.89
2023-04-08T01:45:24.189Z,972.96
2023-04-08T01:46:24.202Z,972.99
2023-04-08T01:47:24.118Z,973.04
2023-04-08T01:48:24.115Z,972.98
2023-04-08T01:49:24.082Z,972.91
2023-04-08T01:50:24.078Z,972.98
2023-04-08T01:51:24.049Z,972.99
2023-04-08T01:52:24.016Z,973.01
2023-04-08T01:53:25.031Z,973.02
2023-04-08T01:54:24.986Z,973.06
2023-04-08T01:55:23.972Z,973.02
2023-04-08T01:56:23.957Z,973.06
2023-04-08T01:57:23.940Z,973.07
2023-04-08T01:58:23.993Z,973.08
2023-04-08T01:59:23.912Z,973.04
2023-04-08T02:00:23.919Z,973.11
2023-04-08T02:01:23.902Z,973.02
2023-04-08T02:02:24.047Z,973.01
2023-04-08T02:03:24.142Z,973.13
2023-04-08T02:04:23.903Z,973.05
2023-04-08T02:05:23.797Z,972.99
2023-04-08T02:06:23.782Z,973.02
2023-04-08T02:07:23.764Z,973.02
2023-04-08T02:08:23.789Z,973.05
2023-04-08T02:09:23.736Z,972.98
2023-04-08T02:10:23.721Z,973.02
2023-04-08T02:11:23.706Z,972.95
2023-04-08T02:12:23.677Z,973.04
2023-04-08T02:13:23.696Z,973.02
2023-04-08T02:14:23.650Z,972.99
2023-04-08T02:15:23.630Z,972.97
2023-04-08T02:16:23.762Z,972.97
2023-04-08T02:17:23.593Z,973.01
2023-04-08T02:18:23.623Z,972.99
2023-04-08T02:19:23.577Z,972.98
2023-04-08T02:20:23.550Z,972.97
2023-04-08T02:21:23.527Z,972.99
2023-04-08T02:22:23.506Z,972.95
2023-04-08T02:23:23.547Z,972.99
2023-04-08T02:24:23.482Z,972.95
2023-04-08T02:25:23.462Z,972.98
2023-04-08T02:26:23.451Z,973.01
2023-04-08T02:27:23.422Z,972.99
2023-04-08T02:28:23.435Z,972.96
2023-04-08T02:29:23.380Z,973.01
2023-04-08T02:30:23.487Z,973.02
2023-04-08T02:31:23.384Z,973.00
2023-04-08T02:32:23.349Z,973.02
2023-04-08T02:33:23.389Z,973.00
2023-04-08T02:34:23.316Z,973.01
2023-04-08T02:35:23.327Z,972.97
2023-04-08T02:36:23.263Z,972.96
2023-04-08T02:37:23.243Z,972.92
2023-04-08T02:38:23.277Z,972.90
2023-04-08T02:39:23.211Z,972.94
2023-04-08T02:40:23.208Z,973.05
2023-04-08T02:41:23.185Z,973.01
2023-04-08T02:42:23.158Z,973.02
2023-04-08T02:43:23.183Z,973.07
2023-04-08T02:44:23.142Z,973.03
2023-04-08T02:45:23.121Z,973.05
2023-04-08T02:46:23.174Z,973.04
2023-04-08T02:47:23.132Z,973.04
2023-04-08T02:48:23.102Z,973.07
2023-04-08T02:49:23.059Z,973.02
2023-04-08T02:50:23.026Z,973.03
2023-04-08T02:51:23.017Z,973.05
2023-04-08T02:52:23.012Z,973.01
2023-04-08T02:53:23.001Z,973.05
2023-04-08T02:54:22.959Z,972.98
2023-04-08T02:55:22.951Z,973.02
2023-04-08T02:56:22.945Z,972.97
2023-04-08T02:57:22.927Z,973.04
2023-04-08T02:58:22.934Z,972.99
2023-04-08T02:59:22.896Z,973.01
2023-04-08T03:00:22.897Z,972.96
2023-04-08T03:01:22.919Z,972.97
2023-04-08T03:02:22.998Z,972.99
2023-04-08T03:03:22.961Z,973.01
2023-04-08T03:04:22.792Z,973.01
2023-04-08T03:05:22.757Z,973.00
2023-04-08T03:06:22.788Z,973.00
2023-04-08T03:07:22.744Z,973.03
2023-04-08T03:08:22.749Z,972.95
2023-04-08T03:09:22.693Z,973.00
2023-04-08T03:10:22.678Z,973.02
2023-04-08T03:11:22.680Z,972.99
2023-04-08T03:12:22.656Z,972.99
2023-04-08T03:13:22.666Z,973.05
2023-04-08T03:14:22.647Z,972.99
2023-04-08T03:15:22.597Z,972.99
2023-04-08T03:16:22.645Z,972.97
2023-04-08T03:17:22.627Z,973.01
2023-04-08T03:18:22.605Z,973.01
2023-04-08T03:19:22.537Z,973.04
2023-04-08T03:20:22.515Z,973.10
2023-04-08T03:21:22.496Z,973.05
2023-04-08T03:22:23.481Z,973.09
2023-04-08T03:23:22.488Z,973.09
2023-04-08T03:24:22.452Z,973.06
2023-04-08T03:25:22.437Z,973.09
2023-04-08T03:26:22.402Z,973.11
2023-04-08T03:27:22.417Z,973.13
2023-04-08T03:28:22.405Z,973.13
2023-04-08T03:29:22.353Z,973.14
2023-04-08T03:30:22.348Z,973.15
2023-04-08T03:31:22.357Z,973.14
2023-04-08T03:32:22.357Z,973.15
2023-04-08T03:33:22.321Z,973.19
2023-04-08T03:34:22.278Z,973.25
2023-04-08T03:35:22.259Z,973.23
2023-04-08T03:36:22.264Z,973.20
2023-04-08T03:37:22.219Z,973.15
2023-04-08T03:38:22.250Z,973.23
2023-04-08T03:39:22.183Z,973.17
2023-04-08T03:40:22.168Z,973.20
2023-04-08T03:41:22.162Z,973.20
2023-04-08T03:42:22.126Z,973.22
2023-04-08T03:43:22.174Z,973.27
2023-04-08T03:44:22.107Z,973.19
2023-04-08T03:45:22.076Z,973.23
2023-04-08T03:46:22.082Z,973.23
2023-04-08T03:47:22.092Z,973.28
2023-04-08T03:48:22.079Z,973.31
2023-04-08T03:49:53.886Z,973.20
2023-04-08T03:50:21.988Z,973.28
2023-04-08T03:51:22.003Z,973.27
2023-04-08T03:52:21.964Z,973.24
2023-04-08T03:53:21.978Z,973.27
2023-04-08T03:54:22.048Z,973.24
2023-04-08T03:55:21.936Z,973.24
2023-04-08T03:56:21.925Z,973.25
2023-04-08T03:57:21.878Z,973.22
2023-04-08T03:58:21.890Z,973.28
2023-04-08T03:59:21.837Z,973.23
2023-04-08T04:00:21.845Z,973.20
2023-04-08T04:01:21.806Z,973.21
2023-04-08T04:02:21.909Z,973.22
2023-04-08T04:03:21.974Z,973.21
2023-04-08T04:04:21.957Z,973.23
2023-04-08T04:05:21.737Z,973.22
2023-04-08T04:06:21.726Z,973.25
2023-04-08T04:07:21.723Z,973.21
2023-04-08T04:08:21.713Z,973.19
2023-04-08T04:09:21.667Z,973.23
2023-04-08T04:10:21.846Z,973.25
2023-04-08T04:11:21.654Z,973.26
2023-04-08T04:12:21.640Z,973.27
2023-04-08T04:13:21.596Z,973.27
2023-04-08T04:14:21.633Z,973.29
2023-04-08T04:15:21.565Z,973.36
2023-04-08T04:16:21.646Z,973.32
2023-04-08T04:17:21.554Z,973.27
2023-04-08T04:18:21.578Z,973.27
2023-04-08T04:19:21.500Z,973.19
2023-04-08T04:20:21.478Z,973.15
2023-04-08T04:21:21.469Z,973.17
2023-04-08T04:22:21.448Z,973.21
2023-04-08T04:23:21.446Z,973.11
2023-04-08T04:24:21.436Z,973.13
2023-04-08T04:25:21.391Z,973.16
2023-04-08T04:26:21.379Z,973.17
2023-04-08T04:27:21.396Z,973.21
2023-04-08T04:28:21.351Z,973.24
2023-04-08T04:29:21.376Z,973.29
2023-04-08T04:30:21.316Z,973.36
2023-04-08T04:31:21.291Z,973.33
2023-04-08T04:32:21.302Z,973.40
2023-04-08T04:33:21.254Z,973.43
2023-04-08T04:34:21.279Z,973.46
2023-04-08T04:35:21.295Z,973.37
2023-04-08T04:36:21.422Z,973.41
2023-04-08T04:37:21.190Z,973.37
2023-04-08T04:38:21.168Z,973.39
2023-04-08T04:39:21.187Z,973.45
2023-04-08T04:40:21.137Z,973.39
2023-04-08T04:41:21.136Z,973.40
2023-04-08T04:42:21.105Z,973.40
2023-04-08T04:43:21.122Z,973.36
2023-04-08T04:44:21.110Z,973.41
2023-04-08T04:45:21.063Z,973.47
2023-04-08T04:46:21.060Z,973.45
2023-04-08T04:47:21.041Z,973.46
2023-04-08T04:48:21.001Z,973.45
2023-04-08T04:49:21.014Z,973.49
2023-04-08T04:50:20.981Z,973.49
2023-04-08T04:51:20.949Z,973.57
2023-04-08T04:52:20.940Z,973.59
2023-04-08T04:53:20.916Z,973.50
2023-04-08T04:54:20.924Z,973.51
2023-04-08T04:55:20.880Z,973.53
2023-04-08T04:56:20.865Z,973.55
2023-04-08T04:57:20.852Z,973.58
2023-04-08T04:58:20.838Z,973.56
2023-04-08T04:59:21.852Z,973.56
2023-04-08T05:00:20.829Z,973.52
2023-04-08T05:01:20.790Z,973.57
2023-04-08T05:02:20.832Z,973.59
2023-04-08T05:03:20.756Z,973.63
2023-04-08T05:04:20.761Z,973.59
2023-04-08T05:05:20.811Z,973.59
2023-04-08T05:06:20.718Z,973.56
2023-04-08T05:07:20.690Z,973.50
2023-04-08T05:08:20.675Z,973.60
2023-04-08T05:09:20.717Z,973.56
2023-04-08T05:10:20.645Z,973.61
2023-04-08T05:11:20.629Z,973.62
2023-04-08T05:12:20.674Z,973.60
2023-04-08T05:13:20.597Z,973.59
2023-04-08T05:14:20.604Z,973.68
2023-04-08T05:15:20.567Z,973.70
2023-04-08T05:16:20.580Z,973.68
2023-04-08T05:17:20.526Z,973.73
2023-04-08T05:18:20.500Z,973.71
2023-04-08T05:19:20.516Z,973.67
2023-04-08T05:20:20.478Z,973.72
2023-04-08T05:21:20.447Z,973.67
2023-04-08T05:22:20.440Z,973.75
2023-04-08T05:23:20.422Z,973.73
2023-04-08T05:24:20.496Z,973.72
2023-04-08T05:25:20.388Z,973.70
2023-04-08T05:26:20.436Z,973.69
2023-04-08T05:27:20.354Z,973.70
2023-04-08T05:28:20.374Z,973.70
2023-04-08T05:29:20.389Z,973.69
2023-04-08T05:30:20.306Z,973.73
2023-04-08T05:31:20.311Z,973.75
2023-04-08T05:32:20.295Z,973.75
2023-04-08T05:33:20.267Z,973.73
2023-04-08T05:34:20.267Z,973.77
2023-04-08T05:35:20.238Z,973.73
2023-04-08T05:36:20.198Z,973.68
2023-04-08T05:37:20.192Z,973.66
2023-04-08T05:38:20.166Z,973.72
2023-04-08T05:39:20.179Z,973.73
2023-04-08T05:40:20.147Z,973.75
2023-04-08T05:41:20.125Z,973.73
2023-04-08T05:42:20.102Z,973.76
2023-04-08T05:43:20.092Z,973.78
2023-04-08T05:44:20.106Z,973.77
2023-04-08T05:45:20.076Z,973.76
2023-04-08T05:46:20.100Z,973.78
2023-04-08T05:47:20.039Z,973.78
2023-04-08T05:48:20.015Z,973.79
2023-04-08T05:49:20.029Z,973.86
2023-04-08T05:50:19.989Z,973.82
2023-04-08T05:51:19.948Z,973.89
2023-04-08T05:52:19.945Z,973.85
2023-04-08T05:53:19.929Z,973.88
2023-04-08T05:54:19.933Z,973.91
2023-04-08T05:55:19.885Z,973.94
2023-04-08T05:56:19.872Z,973.99
2023-04-08T05:57:19.846Z,973.92
2023-04-08T05:58:19.838Z,973.94
2023-04-08T05:59:19.858Z,973.96
2023-04-08T06:00:19.821Z,973.93
2023-04-08T06:01:19.773Z,973.91
2023-04-08T06:02:19.858Z,973.96
2023-04-08T06:03:20.908Z,973.94
2023-04-08T06:04:20.852Z,973.95
2023-04-08T06:05:19.721Z,973.93
2023-04-08T06:06:19.705Z,973.97
2023-04-08T06:07:19.693Z,974.03
2023-04-08T06:08:19.672Z,974.03
2023-04-08T06:09:19.687Z,974.06
2023-04-08T06:10:19.625Z,974.12
2023-04-08T06:11:19.885Z,974.07
2023-04-08T06:12:19.584Z,974.12
2023-04-08T06:13:19.570Z,974.04
2023-04-08T06:14:19.576Z,974.08
2023-04-08T06:15:19.537Z,974.10
2023-04-08T06:16:21.088Z,974.05
2023-04-08T06:17:20.716Z,974.10
2023-04-08T06:18:19.494Z,974.15
2023-04-08T06:19:19.560Z,974.11
2023-04-08T06:20:19.464Z,974.19
2023-04-08T06:21:19.429Z,974.15
2023-04-08T06:22:19.443Z,974.20
2023-04-08T06:23:19.430Z,974.18
2023-04-08T06:24:19.440Z,974.25
2023-04-08T06:25:19.371Z,974.19
2023-04-08T06:26:19.412Z,974.27
2023-04-08T06:27:19.392Z,974.23
2023-04-08T06:28:19.345Z,974.29
2023-04-08T06:29:20.323Z,974.24
2023-04-08T06:30:19.283Z,974.24
2023-04-08T06:31:19.320Z,974.26
2023-04-08T06:32:19.330Z,974.21
2023-04-08T06:33:19.250Z,974.20
2023-04-08T06:34:19.264Z,974.22
2023-04-08T06:35:19.243Z,974.22
2023-04-08T06:36:19.196Z,974.25
2023-04-08T06:37:19.168Z,974.24
2023-04-08T06:38:19.144Z,974.28
2023-04-08T06:39:19.132Z,974.25
2023-04-08T06:40:19.144Z,974.27
2023-04-08T06:41:19.096Z,974.26
2023-04-08T06:42:19.899Z,974.27
2023-04-08T06:43:19.056Z,974.30
2023-04-08T06:44:19.087Z,974.31
2023-04-08T06:45:19.059Z,974.35
2023-04-08T06:46:19.092Z,974.32
2023-04-08T06:47:18.987Z,974.39
2023-04-08T06:48:18.965Z,974.38
2023-04-08T06:49:18.961Z,974.35
2023-04-08T06:50:18.974Z,974.34
2023-04-08T06:51:18.932Z,974.29
2023-04-08T06:52:18.934Z,974.35
2023-04-08T06:53:19.920Z,974.34
2023-04-08T06:54:18.894Z,974.38
2023-04-08T06:55:18.886Z,974.39
2023-04-08T06:56:18.839Z,974.40
2023-04-08T06:57:18.817Z,974.37
2023-04-08T06:58:18.910Z,974.42
2023-04-08T06:59:18.784Z,974.46
2023-04-08T07:00:18.811Z,974.44
2023-04-08T07:01:18.806Z,974.39
2023-04-08T07:02:18.828Z,974.43
2023-04-08T07:03:18.795Z,974.42
2023-04-08T07:04:18.833Z,974.44
2023-04-08T07:05:18.725Z,974.42
2023-04-08T07:06:18.681Z,974.45
2023-04-08T07:07:18.670Z,974.48
2023-04-08T07:08:18.650Z,974.42
2023-04-08T07:09:18.622Z,974.45
2023-04-08T07:10:18.643Z,974.47
2023-04-08T07:11:18.599Z,974.43
2023-04-08T07:12:18.671Z,974.46
2023-04-08T07:13:18.566Z,974.45
2023-04-08T07:14:18.539Z,974.46
2023-04-08T07:15:18.548Z,974.47
2023-04-08T07:16:18.570Z,974.48
2023-04-08T07:17:18.481Z,974.51
2023-04-08T07:18:18.482Z,974.49
2023-04-08T07:19:18.459Z,974.52
2023-04-08T07:20:18.476Z,974.53
2023-04-08T07:21:18.420Z,974.57
2023-04-08T07:22:18.458Z,974.55
2023-04-08T07:23:18.386Z,974.54
2023-04-08T07:24:18.372Z,974.58
2023-04-08T07:25:18.380Z,974.60
2023-04-08T07:26:18.337Z,974.58
2023-04-08T07:27:19.317Z,974.56
2023-04-08T07:28:18.298Z,974.56
2023-04-08T07:29:18.358Z,974.66
2023-04-08T07:30:18.307Z,974.62
2023-04-08T07:31:18.286Z,974.66
2023-04-08T07:32:18.232Z,974.62
2023-04-08T07:33:18.240Z,974.63
2023-04-08T07:34:18.198Z,974.61
2023-04-08T07:35:18.264Z,974.66
2023-04-08T07:36:18.151Z,974.71
2023-04-08T07:37:18.162Z,974.70
2023-04-08T07:38:18.126Z,974.76
2023-04-08T07:39:18.131Z,974.75
2023-04-08T07:40:18.123Z,974.80
2023-04-08T07:41:18.077Z,974.73
2023-04-08T07:42:18.046Z,974.82
2023-04-08T07:43:18.047Z,974.82
2023-04-08T07:44:18.025Z,974.81
2023-04-08T07:45:18.030Z,974.86
2023-04-08T07:46:18.005Z,974.79
2023-04-08T07:47:17.976Z,974.79
2023-04-08T07:48:17.963Z,974.85
2023-04-08T07:49:17.993Z,974.78
2023-04-08T07:50:17.950Z,974.85
2023-04-08T07:51:17.913Z,974.87
2023-04-08T07:52:17.900Z,974.84
2023-04-08T07:53:17.877Z,974.86
2023-04-08T07:54:17.875Z,974.86
2023-04-08T07:55:17.880Z,974.84
2023-04-08T07:56:17.832Z,974.87
2023-04-08T07:57:17.807Z,974.97
2023-04-08T07:58:17.788Z,974.91
2023-04-08T07:59:17.762Z,974.95
2023-04-08T08:00:18.043Z,974.94
2023-04-08T08:01:17.755Z,974.94
2023-04-08T08:02:17.853Z,974.99
2023-04-08T08:03:17.782Z,974.98
2023-04-08T08:04:17.789Z,974.97
2023-04-08T08:05:17.791Z,974.99
2023-04-08T08:06:17.684Z,975.08
2023-04-08T08:07:17.648Z,975.04
2023-04-08T08:08:17.634Z,975.05
2023-04-08T08:09:17.615Z,975.06
2023-04-08T08:10:17.617Z,975.12
2023-04-08T08:11:17.577Z,975.12
2023-04-08T08:12:17.564Z,975.09
2023-04-08T08:13:17.541Z,975.10
2023-04-08T08:14:17.527Z,975.18
2023-04-08T08:15:17.547Z,975.16
2023-04-08T08:16:17.536Z,975.16
2023-04-08T08:17:17.471Z,975.18
2023-04-08T08:18:17.490Z,975.17
2023-04-08T08:19:17.440Z,975.19
2023-04-08T08:20:17.453Z,975.17
2023-04-08T08:21:17.437Z,975.23
2023-04-08T08:22:17.395Z,975.19
2023-04-08T08:23:17.367Z,975.20
2023-04-08T08:24:17.351Z,975.27
2023-04-08T08:25:17.364Z,975.17
2023-04-08T08:26:17.332Z,975.16
2023-04-08T08:27:17.300Z,975.12
2023-04-08T08:28:17.300Z,975.13
2023-04-08T08:29:17.257Z,975.17
2023-04-08T08:30:17.299Z,975.14
2023-04-08T08:31:17.262Z,975.15
2023-04-08T08:32:17.218Z,975.16
2023-04-08T08:33:17.209Z,975.21
2023-04-08T08:34:17.191Z,975.16
2023-04-08T08:35:17.199Z,975.22
2023-04-08T08:36:17.220Z,975.20
2023-04-08T08:37:17.151Z,975.19
2023-04-08T08:38:17.183Z,975.19
2023-04-08T08:39:17.102Z,975.19
2023-04-08T08:40:17.118Z,975.17
2023-04-08T08:41:17.068Z,975.24
2023-04-08T08:42:17.085Z,975.28
2023-04-08T08:43:17.030Z,975.31
2023-04-08T08:44:17.025Z,975.27
2023-04-08T08:45:17.032Z,975.23
2023-04-08T08:46:17.036Z,975.30
2023-04-08T08:47:16.968Z,975.32
2023-04-08T08:48:16.948Z,975.28
2023-04-08T08:49:16.941Z,975.30
2023-04-08T08:50:16.948Z,975.30
2023-04-08T08:51:16.893Z,975.28
2023-04-08T08:52:16.880Z,975.31
2023-04-08T08:53:16.851Z,975.34
2023-04-08T08:54:16.839Z,975.36
2023-04-08T08:55:36.264Z,975.40
2023-04-08T08:56:19.226Z,975.38
2023-04-08T08:57:16.832Z,975.43
2023-04-08T08:58:16.766Z,975.43
2023-04-08T08:59:16.747Z,975.43
2023-04-08T09:00:16.780Z,975.47
2023-04-08T09:01:16.716Z,975.48
2023-04-08T09:02:16.771Z,975.44
2023-04-08T09:03:17.042Z,975.42
2023-04-08T09:04:17.079Z,975.50
2023-04-08T09:05:17.015Z,975.48
2023-04-08T09:06:16.630Z,975.49
2023-04-08T09:07:16.622Z,975.59
2023-04-08T09:08:16.670Z,975.59
2023-04-08T09:09:16.586Z,975.55
2023-04-08T09:10:16.603Z,975.59
2023-04-08T09:11:16.625Z,975.53
2023-04-08T09:12:18.019Z,975.57
2023-04-08T09:13:17.521Z,975.58
2023-04-08T09:14:16.491Z,975.57
2023-04-08T09:15:16.516Z,975.58
2023-04-08T09:16:16.537Z,975.59
2023-04-08T09:17:16.436Z,975.59
2023-04-08T09:18:17.849Z,975.55
2023-04-08T09:19:16.403Z,975.60
2023-04-08T09:20:16.421Z,975.63
2023-04-08T09:21:16.368Z,975.63
2023-04-08T09:22:16.371Z,975.68
2023-04-08T09:23:16.333Z,975.65
2023-04-08T09:24:17.840Z,975.61
2023-04-08T09:25:17.334Z,975.63
2023-04-08T09:26:16.378Z,975.64
2023-04-08T09:27:16.270Z,975.67
2023-04-08T09:28:16.259Z,975.66
2023-04-08T09:29:25.961Z,975.72
2023-04-08T09:30:18.266Z,975.72
2023-04-08T09:31:16.224Z,975.79
2023-04-08T09:32:16.198Z,975.76
2023-04-08T09:33:16.176Z,975.74
2023-04-08T09:34:16.149Z,975.79
2023-04-08T09:35:16.186Z,975.76
2023-04-08T09:36:16.138Z,975.77
2023-04-08T09:37:16.122Z,975.77
2023-04-08T09:38:17.096Z,975.76
2023-04-08T09:39:16.100Z,975.76
2023-04-08T09:40:16.052Z,975.73
2023-04-08T09:41:16.067Z,975.82
2023-04-08T09:42:16.045Z,975.80
2023-04-08T09:43:16.001Z,975.81
2023-04-08T09:44:16.001Z,975.84
2023-04-08T09:45:16.025Z,975.89
2023-04-08T09:46:16.169Z,975.85
2023-04-08T09:47:15.938Z,975.81
2023-04-08T09:48:16.610Z,975.85
2023-04-08T09:49:16.924Z,975.85
2023-04-08T09:50:15.904Z,975.83
2023-04-08T09:51:49.476Z,975.82
2023-04-08T09:52:15.915Z,975.82
2023-04-08T09:53:15.834Z,975.73
2023-04-08T09:54:15.829Z,975.76
2023-04-08T09:55:15.812Z,975.73
2023-04-08T09:56:15.824Z,975.67
2023-04-08T09:57:15.770Z,975.64
2023-04-08T09:58:15.760Z,975.78
2023-04-08T09:59:15.744Z,975.77
2023-04-08T10:00:15.726Z,975.76
2023-04-08T10:01:15.764Z,975.75
2023-04-08T10:02:15.784Z,975.76
2023-04-08T10:03:15.937Z,975.74
2023-04-08T10:04:15.704Z,975.69
2023-04-08T10:05:15.651Z,975.75
2023-04-08T10:06:15.669Z,975.74
2023-04-08T10:07:15.618Z,975.77
2023-04-08T10:08:15.585Z,975.83
2023-04-08T10:09:15.569Z,975.86
2023-04-08T10:10:15.584Z,975.81
2023-04-08T10:11:15.594Z,975.83
2023-04-08T10:12:15.532Z,975.76
2023-04-08T10:13:15.508Z,975.83
2023-04-08T10:14:15.498Z,975.81
2023-04-08T10:15:15.474Z,975.85
2023-04-08T10:16:15.516Z,975.82
2023-04-08T10:17:15.438Z,975.84
2023-04-08T10:18:15.421Z,975.90
2023-04-08T10:19:15.780Z,975.83
2023-04-08T10:20:15.400Z,975.85
2023-04-08T10:21:15.408Z,975.85
2023-04-08T10:22:15.355Z,975.89
2023-04-08T10:23:15.347Z,975.85
2023-04-08T10:24:15.338Z,975.93
2023-04-08T10:25:15.329Z,975.92
2023-04-08T10:26:15.316Z,975.90
2023-04-08T10:27:15.260Z,975.93
2023-04-08T10:28:15.297Z,975.85
2023-04-08T10:29:15.230Z,975.85
2023-04-08T10:30:15.219Z,975.86
2023-04-08T10:31:16.297Z,975.98
2023-04-08T10:32:15.179Z,975.91
2023-04-08T10:33:15.182Z,975.84
2023-04-08T10:34:15.145Z,975.98
2023-04-08T10:35:15.124Z,975.92
2023-04-08T10:36:15.249Z,975.82
2023-04-08T10:37:15.103Z,975.81
2023-04-08T10:38:15.077Z,975.81
2023-04-08T10:39:15.101Z,975.82
2023-04-08T10:40:15.042Z,975.82
2023-04-08T10:41:15.051Z,975.83
2023-04-08T10:42:15.007Z,975.83
2023-04-08T10:43:14.990Z,975.80
2023-04-08T10:44:15.043Z,975.77
2023-04-08T10:45:14.971Z,975.74
2023-04-08T10:46:15.003Z,975.84
2023-04-08T10:47:14.943Z,975.79
2023-04-08T10:48:14.911Z,975.84
2023-04-08T10:49:14.893Z,975.80
2023-04-08T10:50:14.901Z,975.79
2023-04-08T10:51:14.904Z,975.82
2023-04-08T10:52:14.859Z,975.85
2023-04-08T10:53:14.865Z,975.86
2023-04-08T10:54:14.817Z,975.76
2023-04-08T10:55:14.795Z,975.82
2023-04-08T10:56:14.823Z,975.78
2023-04-08T10:57:14.754Z,975.86
2023-04-08T10:58:14.740Z,975.79
2023-04-08T10:59:14.715Z,975.83
2023-04-08T11:00:14.714Z,975.84
2023-04-08T11:01:14.798Z,975.82
2023-04-08T11:02:14.863Z,975.84
2023-04-08T11:03:15.821Z,975.79
2023-04-08T11:04:14.738Z,975.80
2023-04-08T11:05:14.641Z,975.79
2023-04-08T11:06:14.660Z,975.84
2023-04-08T11:07:14.600Z,975.87
2023-04-08T11:08:14.573Z,975.84
2023-04-08T11:09:14.593Z,975.84
2023-04-08T11:10:14.693Z,975.94
2023-04-08T11:11:14.568Z,975.92
2023-04-08T11:12:14.506Z,975.95
2023-04-08T11:13:14.485Z,975.91
2023-04-08T11:14:14.464Z,975.97
2023-04-08T11:15:14.454Z,975.98
2023-04-08T11:16:18.323Z,976.00
2023-04-08T11:17:15.431Z,976.03
2023-04-08T11:18:14.419Z,976.04
2023-04-08T11:19:14.393Z,976.00
2023-04-08T11:20:14.413Z,976.07
2023-04-08T11:21:14.395Z,976.11
2023-04-08T11:22:14.344Z,976.14
2023-04-08T11:23:14.347Z,976.03
2023-04-08T11:24:14.306Z,976.02
2023-04-08T11:25:14.300Z,975.99
2023-04-08T11:26:14.293Z,976.03
2023-04-08T11:27:14.252Z,975.99
2023-04-08T11:28:14.237Z,976.07
2023-04-08T11:29:14.311Z,976.11
2023-04-08T11:30:14.253Z,976.08
2023-04-08T11:31:14.306Z,976.09
2023-04-08T11:32:14.159Z,976.14
2023-04-08T11:33:14.164Z,976.09
2023-04-08T11:34:14.136Z,976.05
2023-04-08T11:35:14.128Z,976.10
2023-04-08T11:36:14.158Z,976.12
2023-04-08T11:37:14.084Z,976.09
2023-04-08T11:38:14.065Z,976.10
2023-04-08T11:39:14.061Z,976.09
2023-04-08T11:40:14.121Z,976.15
2023-04-08T11:41:14.056Z,976.12
2023-04-08T11:42:13.997Z,976.15
2023-04-08T11:43:13.996Z,976.13
2023-04-08T11:44:13.985Z,976.12
2023-04-08T11:45:13.947Z,976.08
2023-04-08T11:46:13.970Z,976.07
2023-04-08T11:47:13.914Z,976.09
2023-04-08T11:48:13.973Z,976.09
2023-04-08T11:49:13.873Z,976.07
2023-04-08T11:50:13.915Z,976.02
2023-04-08T11:51:13.942Z,976.06
2023-04-08T11:52:13.846Z,976.04
2023-04-08T11:53:13.812Z,976.02
2023-04-08T11:54:13.804Z,976.00
2023-04-08T11:55:13.810Z,976.00
2023-04-08T11:56:13.800Z,976.01
2023-04-08T11:57:13.762Z,975.95
2023-04-08T11:58:13.724Z,975.94
2023-04-08T11:59:13.736Z,975.92
2023-04-08T12:00:13.705Z,975.96
2023-04-08T12:01:13.724Z,975.90
2023-04-08T12:02:13.735Z,975.96
2023-04-08T12:03:13.946Z,975.97
2023-04-08T12:04:13.830Z,975.97
2023-04-08T12:05:13.638Z,975.99
2023-04-08T12:06:13.623Z,976.00
2023-04-08T12:07:13.583Z,975.89
2023-04-08T12:08:13.585Z,976.00
2023-04-08T12:09:13.547Z,976.00
2023-04-08T12:10:13.567Z,975.99
2023-04-08T12:11:20.067Z,976.00
2023-04-08T12:12:15.516Z,975.96
2023-04-08T12:13:13.523Z,975.96
2023-04-08T12:14:13.471Z,975.87
2023-04-08T12:15:13.470Z,975.88
2023-04-08T12:16:13.507Z,975.92
2023-04-08T12:17:13.416Z,975.93
2023-04-08T12:18:13.466Z,975.91
2023-04-08T12:19:13.380Z,975.96
2023-04-08T12:20:13.378Z,975.95
2023-04-08T12:21:13.379Z,975.94
2023-04-08T12:22:13.332Z,975.91
2023-04-08T12:23:13.322Z,975.95
2023-04-08T12:24:13.303Z,975.88
2023-04-08T12:25:13.360Z,975.89
2023-04-08T12:26:13.311Z,975.87
2023-04-08T12:27:13.305Z,975.94
2023-04-08T12:28:13.231Z,975.96